createdAt,value
2018-09-06T00:00:17.702Z,7.90
2018-09-06T00:02:46.202Z,8.57
2018-09-06T00:05:16.106Z,8.13
2018-09-06T00:07:45.265Z,8.90
2018-09-06T00:13:06.586Z,8.70
2018-09-06T00:15:37.102Z,8.37
2018-09-06T00:18:06.477Z,8.43
2018-09-06T00:20:51.819Z,8.00
2018-09-06T00:23:21.994Z,7.97
2018-09-06T00:25:53.674Z,8.43
2018-09-06T00:28:24.270Z,9.33
2018-09-06T00:30:54.986Z,8.40
2018-09-06T00:33:25.655Z,8.90
2018-09-06T00:35:54.555Z,8.70
2018-09-06T00:38:24.058Z,8.43
2018-09-06T00:40:53.563Z,7.73
2018-09-06T00:43:23.314Z,9.33
2018-09-06T00:45:52.874Z,9.23
2018-09-06T00:48:21.842Z,8.20
2018-09-06T00:50:53.149Z,8.17
2018-09-06T00:53:22.775Z,8.40
2018-09-06T00:55:53.323Z,7.77
2018-09-06T00:58:22.511Z,8.10
2018-09-06T01:00:55.020Z,8.30
2018-09-06T01:03:23.585Z,9.27
2018-09-06T01:05:52.155Z,8.20
2018-09-06T01:08:21.576Z,8.07
2018-09-06T01:10:51.244Z,8.10
2018-09-06T01:13:22.434Z,7.90
2018-09-06T01:15:52.231Z,8.37
2018-09-06T01:18:21.783Z,7.97
2018-09-06T01:20:50.819Z,8.50
2018-09-06T01:23:37.753Z,7.93
2018-09-06T01:26:06.774Z,8.27
2018-09-06T01:28:35.753Z,7.33
2018-09-06T01:31:04.297Z,7.90
2018-09-06T01:36:32.488Z,8.43
2018-09-06T01:39:01.673Z,8.07
2018-09-06T01:41:30.168Z,8.30
2018-09-06T01:43:59.902Z,9.00
2018-09-06T01:46:28.896Z,8.07
2018-09-06T01:48:57.987Z,7.73
2018-09-06T01:51:27.267Z,7.73
2018-09-06T01:53:58.172Z,7.60
2018-09-06T01:56:29.153Z,8.10
2018-09-06T01:58:57.832Z,8.30
2018-09-06T02:01:27.183Z,7.70
2018-09-06T02:03:56.596Z,9.00
2018-09-06T02:06:26.020Z,8.07
2018-09-06T02:08:54.650Z,7.87
2018-09-06T02:11:23.614Z,7.57
2018-09-06T02:13:52.591Z,7.73
2018-09-06T02:16:22.365Z,8.33
2018-09-06T02:18:51.541Z,7.70
2018-09-06T02:21:20.185Z,7.30
2018-09-06T02:23:49.364Z,7.43
2018-09-06T02:26:19.182Z,8.40
2018-09-06T02:28:48.169Z,7.10
2018-09-06T02:31:17.005Z,7.70
2018-09-06T02:36:28.716Z,7.57
2018-09-06T02:38:57.508Z,7.70
2018-09-06T02:41:26.058Z,8.13
2018-09-06T02:47:01.910Z,7.47
2018-09-06T02:49:37.961Z,7.43
2018-09-06T02:52:10.748Z,7.17
2018-09-06T02:54:41.761Z,7.33
2018-09-06T02:57:19.989Z,8.33
2018-09-06T02:59:49.541Z,7.40
2018-09-06T03:02:19.932Z,7.80
2018-09-06T03:04:50.308Z,7.93
2018-09-06T03:07:19.969Z,7.43
2018-09-06T03:09:49.183Z,7.40
2018-09-06T03:12:17.923Z,7.33
2018-09-06T03:14:49.123Z,6.93
2018-09-06T03:17:29.838Z,7.47
2018-09-06T03:20:00.821Z,7.60
2018-09-06T03:22:31.461Z,7.43
2018-09-06T03:25:00.538Z,7.03
2018-09-06T03:27:29.802Z,7.30
2018-09-06T03:29:59.622Z,7.20
2018-09-06T03:32:30.465Z,6.77
2018-09-06T03:35:00.844Z,7.73
2018-09-06T03:37:39.958Z,7.90
2018-09-06T03:40:08.542Z,7.13
2018-09-06T03:42:37.871Z,7.20
2018-09-06T03:45:07.085Z,7.43
2018-09-06T03:47:53.756Z,6.77
2018-09-06T03:50:23.472Z,6.47
2018-09-06T03:52:52.790Z,7.40
2018-09-06T03:55:22.613Z,7.17
2018-09-06T03:58:08.365Z,6.40
2018-09-06T04:00:38.054Z,6.50
2018-09-06T04:03:07.591Z,6.93
2018-09-06T04:05:36.441Z,7.37
2018-09-06T04:08:06.102Z,7.57
2018-09-06T04:10:36.170Z,6.67
2018-09-06T04:13:04.693Z,7.57
2018-09-06T04:15:33.251Z,6.83
2018-09-06T04:18:01.778Z,7.37
2018-09-06T04:20:37.054Z,6.83
2018-09-06T04:23:06.092Z,7.10
2018-09-06T04:25:35.910Z,7.13
2018-09-06T04:28:04.841Z,6.73
2018-09-06T04:33:46.227Z,6.17
2018-09-06T04:36:15.177Z,7.00
2018-09-06T04:38:44.664Z,6.77
2018-09-06T04:41:14.030Z,6.17
2018-09-06T04:43:43.787Z,6.63
2018-09-06T04:46:14.890Z,7.10
2018-09-06T04:48:44.661Z,7.07
2018-09-06T04:51:15.831Z,6.93
2018-09-06T04:53:44.936Z,7.27
2018-09-06T04:56:13.509Z,6.27
2018-09-06T04:58:42.722Z,7.07
2018-09-06T05:01:11.721Z,6.70
2018-09-06T05:03:40.758Z,7.23
2018-09-06T05:06:09.338Z,6.80
2018-09-06T05:08:38.426Z,6.70
2018-09-06T05:11:07.557Z,7.17
2018-09-06T05:13:41.020Z,6.77
2018-09-06T05:16:10.874Z,6.93
2018-09-06T05:18:40.094Z,6.77
2018-09-06T05:21:09.113Z,6.67
2018-09-06T05:28:52.845Z,6.30
2018-09-06T05:31:21.368Z,6.50
2018-09-06T05:33:50.180Z,6.70
2018-09-06T05:36:19.319Z,6.87
2018-09-06T05:38:48.934Z,6.93
2018-09-06T05:41:18.328Z,6.77
2018-09-06T05:43:47.620Z,6.93
2018-09-06T05:46:17.177Z,6.47
2018-09-06T05:48:46.005Z,7.20
2018-09-06T05:51:16.362Z,6.93
2018-09-06T05:53:46.253Z,6.67
2018-09-06T05:56:15.117Z,6.50
2018-09-06T05:59:07.627Z,6.00
2018-09-06T06:01:37.100Z,7.00
2018-09-06T06:04:05.831Z,6.70
2018-09-06T06:06:34.597Z,6.47
2018-09-06T06:09:07.313Z,7.13
2018-09-06T06:11:38.209Z,7.33
2018-09-06T06:14:07.189Z,6.40
2018-09-06T06:16:35.841Z,6.10
2018-09-06T06:19:13.260Z,6.50
2018-09-06T06:21:42.229Z,6.47
2018-09-06T06:24:12.808Z,7.07
2018-09-06T06:26:42.243Z,7.17
2018-09-06T06:29:11.558Z,7.00
2018-09-06T06:31:40.424Z,7.13
2018-09-06T06:34:10.892Z,7.17
2018-09-06T06:36:40.493Z,7.03
2018-09-06T06:39:11.756Z,6.33
2018-09-06T06:41:41.056Z,6.40
2018-09-06T06:44:11.687Z,6.80
2018-09-06T06:46:40.217Z,6.50
2018-09-06T06:49:09.482Z,6.70
2018-09-06T06:51:46.076Z,6.80
2018-09-06T06:54:14.999Z,6.70
2018-09-06T06:56:45.107Z,6.70
2018-09-06T06:59:14.214Z,6.50
2018-09-06T07:01:45.402Z,6.70
2018-09-06T07:04:14.016Z,6.60
2018-09-06T07:06:43.313Z,6.27
2018-09-06T07:09:12.853Z,6.27
2018-09-06T07:11:42.259Z,7.33
2018-09-06T07:14:14.147Z,6.43
2018-09-06T07:16:42.919Z,7.10
2018-09-06T07:19:11.466Z,6.13
2018-09-06T07:21:40.600Z,6.93
2018-09-06T07:24:11.063Z,7.73
2018-09-06T07:26:40.702Z,7.50
2018-09-06T07:29:09.500Z,7.30
2018-09-06T07:31:38.264Z,7.70
2018-09-06T07:34:07.307Z,7.53
2018-09-06T07:39:42.826Z,7.10
2018-09-06T07:42:11.450Z,7.13
2018-09-06T07:44:39.968Z,7.53
2018-09-06T07:47:08.502Z,7.40
2018-09-06T07:49:37.017Z,6.90
2018-09-06T07:52:05.875Z,7.40
2018-09-06T07:54:34.669Z,7.13
2018-09-06T07:57:03.189Z,7.67
2018-09-06T07:59:32.680Z,7.80
2018-09-06T08:02:02.535Z,7.80
2018-09-06T08:04:31.375Z,7.50
2018-09-06T08:07:00.923Z,7.80
2018-09-06T08:09:40.882Z,7.27
2018-09-06T08:12:09.658Z,7.10
2018-09-06T08:14:38.672Z,7.40
2018-09-06T08:17:07.171Z,7.53
2018-09-06T08:19:35.689Z,7.57
2018-09-06T08:22:04.172Z,7.90
2018-09-06T08:24:32.680Z,6.83
2018-09-06T08:27:01.608Z,8.73
2018-09-06T08:29:30.839Z,7.70
2018-09-06T08:32:00.446Z,7.67
2018-09-06T08:34:29.709Z,7.63
2018-09-06T08:36:59.945Z,7.80
2018-09-06T08:39:28.581Z,7.13
2018-09-06T08:41:59.355Z,7.70
2018-09-06T08:44:29.098Z,9.17
2018-09-06T08:46:58.032Z,7.67
2018-09-06T08:49:27.366Z,9.53
2018-09-06T08:52:39.816Z,8.90
2018-09-06T08:55:08.649Z,8.57
2018-09-06T08:57:38.550Z,8.27
2018-09-06T09:00:09.723Z,8.67
2018-09-06T09:02:52.075Z,8.93
2018-09-06T09:05:20.593Z,8.23
2018-09-06T09:07:49.235Z,8.17
2018-09-06T09:10:20.071Z,8.13
2018-09-06T09:12:51.575Z,8.60
2018-09-06T09:15:21.035Z,8.27
2018-09-06T09:17:50.446Z,8.60
2018-09-06T09:20:19.829Z,8.40
2018-09-06T09:22:53.290Z,8.97
2018-09-06T09:25:22.447Z,7.97
2018-09-06T09:27:51.045Z,8.13
2018-09-06T09:30:20.311Z,7.90
2018-09-06T09:32:49.395Z,8.03
2018-09-06T09:35:18.290Z,7.53
2018-09-06T09:37:48.484Z,7.63
2018-09-06T09:40:17.061Z,7.57
2018-09-06T09:42:45.561Z,7.47
2018-09-06T09:45:15.885Z,7.63
2018-09-06T09:47:45.721Z,7.90
2018-09-06T09:52:42.613Z,8.00
2018-09-06T09:55:11.621Z,7.97
2018-09-06T09:57:41.081Z,7.43
2018-09-06T10:00:10.465Z,8.20
2018-09-06T10:02:44.863Z,8.00
2018-09-06T10:05:21.539Z,8.07
2018-09-06T10:08:00.319Z,8.50
2018-09-06T10:10:31.271Z,8.33
2018-09-06T10:13:02.013Z,7.60
2018-09-06T10:15:32.329Z,7.63
2018-09-06T10:18:12.320Z,8.10
2018-09-06T10:20:53.287Z,7.50
2018-09-06T10:23:32.846Z,6.93
2018-09-06T10:26:03.457Z,7.37
2018-09-06T10:28:33.407Z,6.60
2018-09-06T10:31:03.188Z,6.70
2018-09-06T10:33:32.216Z,6.93
2018-09-06T10:36:02.333Z,6.53
2018-09-06T10:38:31.265Z,6.60
2018-09-06T10:41:17.958Z,5.87
2018-09-06T10:43:50.612Z,5.57
2018-09-06T10:46:21.431Z,6.03
2018-09-06T10:48:51.893Z,5.67
2018-09-06T10:51:21.769Z,6.00
2018-09-06T10:54:02.766Z,5.60
2018-09-06T10:56:34.283Z,5.87
2018-09-06T10:59:04.460Z,6.03
2018-09-06T11:01:42.577Z,5.80
2018-09-06T11:04:19.465Z,5.93
2018-09-06T11:06:48.495Z,5.37
2018-09-06T11:09:17.585Z,5.60
2018-09-06T11:11:47.615Z,5.70
2018-09-06T11:14:30.038Z,5.20
2018-09-06T11:17:00.377Z,5.17
2018-09-06T11:19:39.582Z,5.07
2018-09-06T11:22:10.614Z,5.60
2018-09-06T11:24:51.392Z,5.33
2018-09-06T11:27:24.257Z,4.90
2018-09-06T11:30:04.945Z,5.40
2018-09-06T11:32:42.028Z,5.57
2018-09-06T11:35:26.601Z,6.07
2018-09-06T11:37:59.066Z,5.77
2018-09-06T11:40:33.224Z,5.23
2018-09-06T11:43:11.925Z,5.10
2018-09-06T11:45:50.300Z,5.47
2018-09-06T11:48:35.244Z,5.37
2018-09-06T11:51:20.288Z,5.93
2018-09-06T11:53:55.537Z,5.93
2018-09-06T11:56:30.665Z,5.50
2018-09-06T11:59:07.827Z,6.13
2018-09-06T12:01:38.220Z,6.43
2018-09-06T12:04:11.589Z,6.30
2018-09-06T12:09:21.262Z,6.67
2018-09-06T12:11:58.439Z,6.27
2018-09-06T12:14:28.562Z,6.57
2018-09-06T12:17:00.948Z,6.77
2018-09-06T12:19:29.951Z,7.10
2018-09-06T12:21:59.203Z,7.13
2018-09-06T12:24:27.736Z,6.63
2018-09-06T12:26:57.453Z,6.77
2018-09-06T12:29:26.114Z,7.17
2018-09-06T12:31:54.890Z,7.33
2018-09-06T12:34:24.443Z,7.53
2018-09-06T12:36:53.995Z,7.10
2018-09-06T12:39:22.781Z,7.37
2018-09-06T12:41:53.234Z,7.70
2018-09-06T12:44:23.047Z,7.83
2018-09-06T12:46:53.872Z,8.03
2018-09-06T12:49:24.061Z,8.27
2018-09-06T12:51:52.951Z,8.30
2018-09-06T12:54:22.379Z,7.97
2018-09-06T12:56:51.637Z,8.07
2018-09-06T12:59:20.441Z,8.10
2018-09-06T13:01:49.845Z,8.23
2018-09-06T13:04:18.617Z,8.03
2018-09-06T13:06:47.226Z,8.97
2018-09-06T13:09:28.639Z,8.70
2018-09-06T13:11:58.073Z,8.17
2018-09-06T13:14:26.855Z,7.83
2018-09-06T13:16:57.288Z,7.53
2018-09-06T13:19:27.278Z,8.50
2018-09-06T13:21:55.919Z,8.30
2018-09-06T13:24:24.453Z,7.57
2018-09-06T13:26:54.180Z,7.70
2018-09-06T13:29:23.258Z,9.00
2018-09-06T13:31:52.336Z,7.43
2018-09-06T13:34:21.103Z,7.73
2018-09-06T13:36:50.974Z,9.43
2018-09-06T13:39:19.701Z,9.20
2018-09-06T13:41:48.548Z,9.07
2018-09-06T13:44:17.852Z,8.50
2018-09-06T13:46:47.487Z,8.30
2018-09-06T13:49:16.518Z,8.87
2018-09-06T13:51:45.236Z,8.10
2018-09-06T13:57:08.475Z,9.13
2018-09-06T13:59:37.780Z,9.87
2018-09-06T14:02:06.343Z,9.07
2018-09-06T14:04:34.880Z,9.40
2018-09-06T14:07:03.834Z,7.40
2018-09-06T14:09:40.217Z,9.40
2018-09-06T14:12:09.337Z,8.57
2018-09-06T14:14:38.555Z,8.13
2018-09-06T14:17:07.264Z,8.70
2018-09-06T14:19:36.577Z,8.47
2018-09-06T14:22:06.390Z,8.63
2018-09-06T14:24:34.900Z,9.20
2018-09-06T14:27:03.394Z,8.47
2018-09-06T14:29:32.009Z,8.17
2018-09-06T14:32:07.691Z,8.47
2018-09-06T14:34:40.153Z,8.47
2018-09-06T14:37:08.880Z,8.53
2018-09-06T14:39:37.841Z,7.83
2018-09-06T14:42:06.439Z,8.93
2018-09-06T14:44:35.402Z,8.90
2018-09-06T14:47:05.444Z,8.43
2018-09-06T14:49:35.696Z,9.53
2018-09-06T14:52:16.453Z,8.60
2018-09-06T14:54:45.750Z,8.50
2018-09-06T14:57:14.909Z,8.57
2018-09-06T14:59:44.113Z,8.50
2018-09-06T15:02:21.743Z,10.20
2018-09-06T15:04:51.525Z,9.40
2018-09-06T15:07:20.572Z,9.33
2018-09-06T15:09:55.198Z,8.93
2018-09-06T15:12:25.329Z,9.00
2018-09-06T15:14:54.226Z,9.40
2018-09-06T15:17:24.200Z,9.87
2018-09-06T15:19:52.728Z,9.27
2018-09-06T15:25:50.974Z,8.80
2018-09-06T15:28:20.059Z,8.93
2018-09-06T15:30:48.595Z,8.27
2018-09-06T15:33:17.754Z,9.00
2018-09-06T15:35:47.150Z,8.33
2018-09-06T15:38:16.274Z,8.23
2018-09-06T15:40:46.529Z,8.00
2018-09-06T15:43:17.053Z,8.23
2018-09-06T15:45:46.590Z,8.03
2018-09-06T15:48:15.325Z,7.90
2018-09-06T15:50:44.545Z,8.37
2018-09-06T15:53:13.721Z,8.07
2018-09-06T15:55:48.672Z,8.77
2018-09-06T15:58:17.770Z,8.37
2018-09-06T16:00:47.537Z,8.67
2018-09-06T16:03:16.474Z,8.77
2018-09-06T16:05:53.005Z,9.17
2018-09-06T16:08:21.984Z,8.47
2018-09-06T16:10:51.529Z,8.03
2018-09-06T16:13:22.800Z,8.73
2018-09-06T16:15:53.405Z,8.77
2018-09-06T16:18:22.371Z,9.00
2018-09-06T16:20:51.626Z,8.77
2018-09-06T16:23:21.409Z,8.73
2018-09-06T16:25:50.400Z,9.03
2018-09-06T16:28:20.777Z,9.27
2018-09-06T16:30:49.713Z,8.63
2018-09-06T16:33:20.048Z,8.30
2018-09-06T16:35:48.596Z,8.47
2018-09-06T16:38:18.627Z,8.57
2018-09-06T16:40:47.525Z,9.13
2018-09-06T16:43:16.570Z,8.90
2018-09-06T16:45:45.296Z,8.90
2018-09-06T16:48:14.450Z,8.57
2018-09-06T16:50:45.677Z,9.00
2018-09-06T16:53:14.694Z,8.80
2018-09-06T16:58:23.303Z,8.13
2018-09-06T17:00:53.237Z,8.07
2018-09-06T17:03:22.521Z,8.37
2018-09-06T17:05:55.113Z,8.47
2018-09-06T17:08:23.726Z,8.33
2018-09-06T17:10:53.828Z,7.87
2018-09-06T17:13:23.430Z,8.27
2018-09-06T17:19:10.770Z,7.77
2018-09-06T17:21:41.310Z,8.10
2018-09-06T17:24:09.873Z,8.03
2018-09-06T17:26:39.409Z,9.37
2018-09-06T17:29:09.181Z,7.43
2018-09-06T17:31:38.025Z,8.20
2018-09-06T17:34:07.343Z,8.17
2018-09-06T17:36:38.378Z,9.03
2018-09-06T17:39:11.300Z,7.83
2018-09-06T17:41:41.070Z,7.80
2018-09-06T17:44:10.982Z,7.20
2018-09-06T17:46:42.341Z,7.47
2018-09-06T17:49:12.686Z,7.20
2018-09-06T17:51:43.021Z,6.63
2018-09-06T17:54:12.062Z,7.20
2018-09-06T17:56:49.002Z,7.17
2018-09-06T17:59:18.763Z,8.47
2018-09-06T18:01:47.966Z,10.33
2018-09-06T18:04:19.836Z,12.23
2018-09-06T18:06:51.385Z,18.90
2018-09-06T18:09:22.437Z,11.93
2018-09-06T18:11:53.141Z,7.87
2018-09-06T18:14:22.656Z,7.40
2018-09-06T18:17:00.534Z,6.53
2018-09-06T18:19:30.690Z,6.37
2018-09-06T18:22:01.485Z,5.90
2018-09-06T18:24:31.947Z,5.40
2018-09-06T18:27:22.764Z,5.93
2018-09-06T18:29:53.445Z,5.43
2018-09-06T18:32:24.264Z,5.90
2018-09-06T18:34:53.474Z,5.83
2018-09-06T18:37:22.059Z,5.77
2018-09-06T18:39:52.454Z,5.83
2018-09-06T18:42:24.532Z,5.80
2018-09-06T18:44:54.608Z,5.80
2018-09-06T18:50:34.844Z,5.40
2018-09-06T18:53:12.324Z,5.63
2018-09-06T18:55:41.309Z,5.87
2018-09-06T18:58:11.120Z,5.60
2018-09-06T19:00:53.221Z,5.80
2018-09-06T19:03:25.154Z,5.27
2018-09-06T19:05:56.014Z,5.73
2018-09-06T19:08:26.742Z,5.87
2018-09-06T19:10:58.493Z,5.30
2018-09-06T19:13:27.883Z,5.70
2018-09-06T19:15:57.233Z,4.93
2018-09-06T19:18:26.673Z,5.00
2018-09-06T19:20:59.185Z,5.13
2018-09-06T19:23:30.611Z,5.30
2018-09-06T19:26:00.807Z,5.80
2018-09-06T19:28:30.980Z,5.10
2018-09-06T19:31:00.527Z,5.37
2018-09-06T19:33:30.201Z,5.27
2018-09-06T19:36:01.350Z,5.13
2018-09-06T19:38:31.750Z,5.30
2018-09-06T19:41:04.977Z,4.80
2018-09-06T19:43:34.039Z,5.00
2018-09-06T19:46:04.300Z,4.77
2018-09-06T19:48:33.597Z,4.73
2018-09-06T19:51:04.752Z,4.53
2018-09-06T19:53:34.158Z,5.40
2018-09-06T19:56:04.209Z,4.83
2018-09-06T19:58:33.041Z,4.80
2018-09-06T20:01:11.728Z,4.67
2018-09-06T20:03:41.421Z,4.83
2018-09-06T20:06:10.395Z,4.77
2018-09-06T20:08:39.539Z,4.90
2018-09-06T20:11:13.099Z,4.23
2018-09-06T20:13:44.279Z,4.53
2018-09-06T20:16:14.035Z,4.73
2018-09-06T20:18:43.560Z,4.30
2018-09-06T20:21:14.000Z,4.50
2018-09-06T20:23:43.436Z,4.80
2018-09-06T20:26:14.146Z,4.90
2018-09-06T20:28:43.655Z,5.13
2018-09-06T20:31:17.961Z,5.13
2018-09-06T20:33:48.359Z,4.60
2018-09-06T20:36:19.341Z,4.93
2018-09-06T20:38:47.919Z,4.13
2018-09-06T20:41:19.852Z,4.83
2018-09-06T20:43:49.613Z,4.53
2018-09-06T20:46:19.486Z,4.30
2018-09-06T20:48:48.703Z,4.47
2018-09-06T20:54:34.352Z,4.20
2018-09-06T20:57:05.005Z,4.90
2018-09-06T20:59:34.517Z,3.83
2018-09-06T21:04:55.181Z,4.40
2018-09-06T21:07:25.788Z,4.57
2018-09-06T21:09:54.600Z,4.30
2018-09-06T21:12:24.139Z,4.60
2018-09-06T21:14:55.569Z,4.50
2018-09-06T21:17:25.599Z,3.93
2018-09-06T21:19:54.712Z,4.33
2018-09-06T21:22:24.932Z,4.73
2018-09-06T21:24:57.602Z,4.43
2018-09-06T21:27:27.726Z,3.97
2018-09-06T21:29:58.668Z,5.00
2018-09-06T21:32:30.274Z,4.67
2018-09-06T21:35:04.365Z,4.50
2018-09-06T21:37:36.111Z,4.97
2018-09-06T21:40:07.301Z,4.77
2018-09-06T21:42:36.455Z,4.83
2018-09-06T21:45:07.973Z,4.60
2018-09-06T21:47:36.973Z,5.03
2018-09-06T21:50:07.262Z,4.70
2018-09-06T21:52:37.961Z,4.20
2018-09-06T21:55:07.325Z,4.53
2018-09-06T21:57:37.157Z,5.13
2018-09-06T22:00:05.889Z,4.87
2018-09-06T22:02:41.901Z,5.30
2018-09-06T22:05:12.954Z,5.60
2018-09-06T22:07:42.230Z,5.63
2018-09-06T22:10:13.012Z,5.33
2018-09-06T22:12:43.189Z,5.30
2018-09-06T22:15:16.759Z,5.10
2018-09-06T22:17:46.341Z,5.40
2018-09-06T22:20:16.754Z,4.93
2018-09-06T22:22:46.336Z,4.97
2018-09-06T22:25:24.241Z,5.67
2018-09-06T22:27:52.984Z,5.83
2018-09-06T22:30:24.464Z,5.23
2018-09-06T22:32:55.692Z,5.83
2018-09-06T22:35:31.456Z,5.57
2018-09-06T22:38:00.230Z,5.93
2018-09-06T22:40:30.017Z,5.43
2018-09-06T22:43:00.304Z,5.27
2018-09-06T22:45:37.079Z,6.00
2018-09-06T22:48:07.987Z,6.10
2018-09-06T22:50:40.829Z,5.70
2018-09-06T22:53:12.014Z,5.90
2018-09-06T22:55:44.184Z,6.60
2018-09-06T22:58:13.786Z,6.00
2018-09-06T23:00:43.285Z,5.80
2018-09-06T23:03:18.393Z,5.80
2018-09-06T23:05:53.829Z,5.87
2018-09-06T23:08:24.406Z,5.90
2018-09-06T23:10:53.108Z,6.17
2018-09-06T23:13:23.095Z,6.03
2018-09-06T23:16:04.105Z,5.80
2018-09-06T23:18:36.284Z,6.07
2018-09-06T23:21:05.749Z,6.63
2018-09-06T23:23:35.312Z,5.80
2018-09-06T23:26:04.497Z,5.93
2018-09-06T23:28:33.236Z,5.77
2018-09-06T23:31:02.669Z,5.50
2018-09-06T23:33:31.957Z,6.33
2018-09-06T23:36:00.984Z,6.07
2018-09-06T23:38:30.949Z,5.80
2018-09-06T23:40:59.676Z,5.60
2018-09-06T23:43:29.077Z,5.47
2018-09-06T23:46:03.473Z,5.93
2018-09-06T23:48:33.179Z,5.60
2018-09-06T23:51:03.892Z,5.07
2018-09-06T23:53:33.327Z,5.33
2018-09-06T23:59:14.220Z,5.83
